sensor_id;sensor_type;location;lat;lon;timestamp;pressure;altitude;pressure_sealevel;temperature;humidity
68230;BME280;55048;52.220;5.160;2023-03-23T00:01:03;99937.44;;;12.19;91.45
68230;BME280;55048;52.220;5.160;2023-03-23T00:03:29;100000.84;;;12.47;91.92
68230;BME280;55048;52.220;5.160;2023-03-23T00:05:58;100010.44;;;12.54;91.58
68230;BME280;55048;52.220;5.160;2023-03-23T00:08:29;100032.31;;;12.61;91.08
68230;BME280;55048;52.220;5.160;2023-03-23T00:10:55;100058.69;;;12.67;91.08
68230;BME280;55048;52.220;5.160;2023-03-23T00:13:28;100040.28;;;12.76;90.97
68230;BME280;55048;52.220;5.160;2023-03-23T00:15:54;99984.09;;;12.27;90.03
68230;BME280;55048;52.220;5.160;2023-03-23T00:18:23;99898.00;;;11.80;89.97
68230;BME280;55048;52.220;5.160;2023-03-23T00:20:53;99997.66;;;12.50;89.73
68230;BME280;55048;52.220;5.160;2023-03-23T00:23:20;99999.75;;;12.69;89.79
68230;BME280;55048;52.220;5.160;2023-03-23T00:25:49;100018.09;;;12.91;89.45
68230;BME280;55048;52.220;5.160;2023-03-23T00:28:16;99881.75;;;11.92;89.23
68230;BME280;55048;52.220;5.160;2023-03-23T00:30:43;99980.31;;;12.43;89.64
68230;BME280;55048;52.220;5.160;2023-03-23T00:33:10;99969.13;;;12.46;89.32
68230;BME280;55048;52.220;5.160;2023-03-23T00:35:40;99975.75;;;12.54;88.87
68230;BME280;55048;52.220;5.160;2023-03-23T00:38:05;99927.53;;;12.35;89.03
68230;BME280;55048;52.220;5.160;2023-03-23T00:40:31;99942.97;;;12.43;88.76
68230;BME280;55048;52.220;5.160;2023-03-23T00:43:01;99978.94;;;12.61;88.31
68230;BME280;55048;52.220;5.160;2023-03-23T00:45:28;99996.72;;;12.91;88.53
68230;BME280;55048;52.220;5.160;2023-03-23T00:47:54;100015.69;;;12.94;88.47
68230;BME280;55048;52.220;5.160;2023-03-23T00:50:19;99990.38;;;12.76;88.83
68230;BME280;55048;52.220;5.160;2023-03-23T00:52:45;99928.03;;;12.47;88.54
68230;BME280;55048;52.220;5.160;2023-03-23T00:55:10;100014.91;;;12.89;88.53
68230;BME280;55048;52.220;5.160;2023-03-23T00:57:36;100019.13;;;13.00;87.94
68230;BME280;55048;52.220;5.160;2023-03-23T01:00:02;100002.06;;;13.01;87.62
68230;BME280;55048;52.220;5.160;2023-03-23T01:02:30;99948.75;;;12.75;87.10
68230;BME280;55048;52.220;5.160;2023-03-23T01:04:56;99946.38;;;12.74;87.50
68230;BME280;55048;52.220;5.160;2023-03-23T01:07:21;99960.78;;;12.73;87.26
68230;BME280;55048;52.220;5.160;2023-03-23T01:09:48;99980.47;;;12.82;87.26
68230;BME280;55048;52.220;5.160;2023-03-23T01:12:14;99806.34;;;11.81;86.94
68230;BME280;55048;52.220;5.160;2023-03-23T01:14:41;100007.41;;;13.01;86.66
68230;BME280;55048;52.220;5.160;2023-03-23T01:17:07;99765.91;;;11.54;86.44
68230;BME280;55048;52.220;5.160;2023-03-23T01:19:33;100011.63;;;13.12;86.47
68230;BME280;55048;52.220;5.160;2023-03-23T01:22:00;99965.06;;;12.69;86.39
68230;BME280;55048;52.220;5.160;2023-03-23T01:24:25;99903.44;;;12.65;86.44
68230;BME280;55048;52.220;5.160;2023-03-23T01:26:51;99856.34;;;12.30;86.28
68230;BME280;55048;52.220;5.160;2023-03-23T01:29:16;99953.72;;;13.02;86.19
68230;BME280;55048;52.220;5.160;2023-03-23T01:31:42;99896.78;;;12.63;86.11
68230;BME280;55048;52.220;5.160;2023-03-23T01:34:08;99963.28;;;13.14;85.49
68230;BME280;55048;52.220;5.160;2023-03-23T01:36:35;99820.69;;;12.11;85.36
68230;BME280;55048;52.220;5.160;2023-03-23T01:39:04;99914.59;;;12.77;85.58
68230;BME280;55048;52.220;5.160;2023-03-23T01:41:32;99910.34;;;12.76;85.58
68230;BME280;55048;52.220;5.160;2023-03-23T01:44:59;99938.81;;;12.96;85.41
68230;BME280;55048;52.220;5.160;2023-03-23T01:46:57;99903.94;;;12.72;85.33
68230;BME280;55048;52.220;5.160;2023-03-23T01:49:30;99873.63;;;12.53;85.27
68230;BME280;55048;52.220;5.160;2023-03-23T01:52:00;99961.19;;;13.11;85.48
68230;BME280;55048;52.220;5.160;2023-03-23T01:54:28;99938.59;;;12.88;85.05
68230;BME280;55048;52.220;5.160;2023-03-23T01:57:13;99918.84;;;12.89;85.37
68230;BME280;55048;52.220;5.160;2023-03-23T01:59:42;99896.19;;;12.81;84.98
68230;BME280;55048;52.220;5.160;2023-03-23T02:02:22;99941.97;;;13.03;85.54
68230;BME280;55048;52.220;5.160;2023-03-23T02:04:49;99939.28;;;13.09;85.11
68230;BME280;55048;52.220;5.160;2023-03-23T02:07:17;99940.38;;;13.08;84.95
68230;BME280;55048;52.220;5.160;2023-03-23T02:09:43;99886.09;;;12.73;84.75
68230;BME280;55048;52.220;5.160;2023-03-23T02:12:11;99910.81;;;12.94;84.74
68230;BME280;55048;52.220;5.160;2023-03-23T02:14:37;99878.91;;;12.68;85.25
68230;BME280;55048;52.220;5.160;2023-03-23T02:31:09;99908.22;;;12.79;84.58
68230;BME280;55048;52.220;5.160;2023-03-23T02:36:41;99861.34;;;12.57;84.48
68230;BME280;55048;52.220;5.160;2023-03-23T02:39:18;99940.88;;;13.10;84.64
68230;BME280;55048;52.220;5.160;2023-03-23T02:41:53;99749.63;;;11.75;84.57
68230;BME280;55048;52.220;5.160;2023-03-23T02:44:22;99923.88;;;12.90;84.86
68230;BME280;55048;52.220;5.160;2023-03-23T02:46:51;99912.69;;;12.93;85.06
68230;BME280;55048;52.220;5.160;2023-03-23T02:49:19;99860.78;;;12.60;84.48
68230;BME280;55048;52.220;5.160;2023-03-23T02:51:46;99931.31;;;13.03;84.60
68230;BME280;55048;52.220;5.160;2023-03-23T02:54:14;99922.50;;;13.03;84.59
68230;BME280;55048;52.220;5.160;2023-03-23T02:56:41;99766.38;;;11.96;84.90
68230;BME280;55048;52.220;5.160;2023-03-23T02:59:15;99790.28;;;12.22;84.68
68230;BME280;55048;52.220;5.160;2023-03-23T03:04:18;99882.84;;;12.81;84.39
68230;BME280;55048;52.220;5.160;2023-03-23T03:06:49;99908.63;;;13.06;84.21
68230;BME280;55048;52.220;5.160;2023-03-23T03:09:29;99910.50;;;12.95;84.62
68230;BME280;55048;52.220;5.160;2023-03-23T03:12:04;99940.84;;;13.15;84.43
68230;BME280;55048;52.220;5.160;2023-03-23T03:14:37;99702.22;;;11.72;83.83
68230;BME280;55048;52.220;5.160;2023-03-23T03:17:11;99923.75;;;13.21;83.78
68230;BME280;55048;52.220;5.160;2023-03-23T03:19:42;99935.50;;;13.15;83.88
68230;BME280;55048;52.220;5.160;2023-03-23T03:22:10;99829.59;;;12.56;83.59
68230;BME280;55048;52.220;5.160;2023-03-23T03:24:39;99880.34;;;13.00;83.15
68230;BME280;55048;52.220;5.160;2023-03-23T03:27:15;99924.81;;;13.25;83.22
68230;BME280;55048;52.220;5.160;2023-03-23T03:29:48;99916.28;;;13.23;83.41
68230;BME280;55048;52.220;5.160;2023-03-23T03:32:20;99717.09;;;11.99;83.17
68230;BME280;55048;52.220;5.160;2023-03-23T03:34:48;99842.03;;;12.75;82.74
68230;BME280;55048;52.220;5.160;2023-03-23T03:37:17;99895.28;;;13.06;83.03
68230;BME280;55048;52.220;5.160;2023-03-23T03:39:45;99826.06;;;12.70;82.62
68230;BME280;55048;52.220;5.160;2023-03-23T03:42:10;99872.03;;;13.07;82.59
68230;BME280;55048;52.220;5.160;2023-03-23T03:44:36;99858.75;;;12.91;82.99
68230;BME280;55048;52.220;5.160;2023-03-23T03:47:02;99841.75;;;12.77;83.11
68230;BME280;55048;52.220;5.160;2023-03-23T03:49:29;99933.63;;;13.20;83.26
68230;BME280;55048;52.220;5.160;2023-03-23T03:51:55;99853.56;;;12.66;84.61
68230;BME280;55048;52.220;5.160;2023-03-23T03:54:25;99938.44;;;13.18;86.90
68230;BME280;55048;52.220;5.160;2023-03-23T03:56:50;99872.75;;;12.73;87.80
68230;BME280;55048;52.220;5.160;2023-03-23T03:59:35;99923.31;;;12.98;89.22
68230;BME280;55048;52.220;5.160;2023-03-23T04:02:27;99901.03;;;12.74;89.77
68230;BME280;55048;52.220;5.160;2023-03-23T04:04:54;99920.72;;;12.83;90.54
68230;BME280;55048;52.220;5.160;2023-03-23T04:07:19;99956.72;;;12.86;91.54
68230;BME280;55048;52.220;5.160;2023-03-23T04:09:46;99833.75;;;12.12;92.10
68230;BME280;55048;52.220;5.160;2023-03-23T04:12:15;99711.38;;;11.31;92.72
68230;BME280;55048;52.220;5.160;2023-03-23T04:14:55;99920.03;;;12.52;93.63
68230;BME280;55048;52.220;5.160;2023-03-23T04:17:24;99915.81;;;12.41;93.99
68230;BME280;55048;52.220;5.160;2023-03-23T04:19:52;99924.28;;;12.53;94.87
68230;BME280;55048;52.220;5.160;2023-03-23T04:22:18;99896.34;;;12.30;95.45
68230;BME280;55048;52.220;5.160;2023-03-23T04:24:44;99905.69;;;12.28;94.99
68230;BME280;55048;52.220;5.160;2023-03-23T04:27:14;99902.25;;;12.12;96.04
68230;BME280;55048;52.220;5.160;2023-03-23T04:29:40;99964.06;;;12.34;96.61
68230;BME280;55048;52.220;5.160;2023-03-23T04:32:41;99891.34;;;11.98;96.15
68230;BME280;55048;52.220;5.160;2023-03-23T04:35:13;99941.69;;;12.25;96.25
68230;BME280;55048;52.220;5.160;2023-03-23T04:37:56;99892.41;;;11.92;96.15
68230;BME280;55048;52.220;5.160;2023-03-23T04:40:22;99928.88;;;12.17;97.36
68230;BME280;55048;52.220;5.160;2023-03-23T04:42:59;99855.91;;;11.72;96.62
68230;BME280;55048;52.220;5.160;2023-03-23T04:45:40;99884.69;;;11.90;96.04
68230;BME280;55048;52.220;5.160;2023-03-23T04:48:11;99942.75;;;12.29;95.72
68230;BME280;55048;52.220;5.160;2023-03-23T04:50:56;99933.94;;;12.29;94.74
68230;BME280;55048;52.220;5.160;2023-03-23T04:53:27;99970.75;;;12.37;94.70
68230;BME280;55048;52.220;5.160;2023-03-23T04:55:53;99947.56;;;12.27;93.09
68230;BME280;55048;52.220;5.160;2023-03-23T04:58:19;99920.91;;;11.76;93.19
68230;BME280;55048;52.220;5.160;2023-03-23T05:01:01;99983.81;;;12.33;92.15
68230;BME280;55048;52.220;5.160;2023-03-23T05:03:26;99939.31;;;12.08;92.48
68230;BME280;55048;52.220;5.160;2023-03-23T05:05:54;99996.84;;;12.40;91.81
68230;BME280;55048;52.220;5.160;2023-03-23T05:08:22;99983.78;;;12.43;91.99
68230;BME280;55048;52.220;5.160;2023-03-23T05:10:56;99979.00;;;12.25;93.00
68230;BME280;55048;52.220;5.160;2023-03-23T05:13:24;99966.50;;;12.10;92.95
68230;BME280;55048;52.220;5.160;2023-03-23T05:15:53;99915.59;;;11.76;92.36
68230;BME280;55048;52.220;5.160;2023-03-23T05:18:18;99942.22;;;12.17;92.40
68230;BME280;55048;52.220;5.160;2023-03-23T05:20:45;99948.63;;;12.21;92.27
68230;BME280;55048;52.220;5.160;2023-03-23T05:23:15;99988.31;;;12.38;92.36
68230;BME280;55048;52.220;5.160;2023-03-23T05:25:41;99997.41;;;12.42;92.61
68230;BME280;55048;52.220;5.160;2023-03-23T05:28:14;99962.75;;;12.16;93.02
68230;BME280;55048;52.220;5.160;2023-03-23T05:31:05;99982.75;;;12.19;93.13
68230;BME280;55048;52.220;5.160;2023-03-23T05:33:32;99981.94;;;12.18;92.06
68230;BME280;55048;52.220;5.160;2023-03-23T05:36:09;99977.13;;;12.20;92.14
68230;BME280;55048;52.220;5.160;2023-03-23T05:38:54;99955.56;;;11.96;92.70
68230;BME280;55048;52.220;5.160;2023-03-23T05:41:21;99999.53;;;12.19;93.08
68230;BME280;55048;52.220;5.160;2023-03-23T05:43:46;99998.19;;;12.12;93.31
68230;BME280;55048;52.220;5.160;2023-03-23T05:46:26;99996.09;;;12.09;93.46
68230;BME280;55048;52.220;5.160;2023-03-23T05:48:55;99954.19;;;11.79;93.53
68230;BME280;55048;52.220;5.160;2023-03-23T05:51:27;99971.03;;;11.89;94.00
68230;BME280;55048;52.220;5.160;2023-03-23T05:53:52;99972.59;;;11.80;93.84
68230;BME280;55048;52.220;5.160;2023-03-23T05:56:19;99955.53;;;11.76;94.63
68230;BME280;55048;52.220;5.160;2023-03-23T05:59:10;100015.25;;;12.06;94.82
68230;BME280;55048;52.220;5.160;2023-03-23T06:01:38;99988.84;;;11.89;95.52
68230;BME280;55048;52.220;5.160;2023-03-23T06:04:04;99989.41;;;11.86;96.14
68230;BME280;55048;52.220;5.160;2023-03-23T06:06:45;100025.91;;;12.06;96.26
68230;BME280;55048;52.220;5.160;2023-03-23T06:09:11;99982.19;;;11.76;96.63
68230;BME280;55048;52.220;5.160;2023-03-23T06:12:03;99980.53;;;11.70;96.79
68230;BME280;55048;52.220;5.160;2023-03-23T06:14:55;100037.91;;;11.98;96.74
68230;BME280;55048;52.220;5.160;2023-03-23T06:17:29;99941.66;;;11.54;96.32
68230;BME280;55048;52.220;5.160;2023-03-23T06:19:55;100022.97;;;11.92;96.76
68230;BME280;55048;52.220;5.160;2023-03-23T06:22:21;100003.50;;;11.81;96.69
68230;BME280;55048;52.220;5.160;2023-03-23T06:24:55;100042.97;;;11.94;97.21
68230;BME280;55048;52.220;5.160;2023-03-23T06:27:27;100023.78;;;11.92;97.10
68230;BME280;55048;52.220;5.160;2023-03-23T06:29:54;100046.44;;;12.15;96.45
68230;BME280;55048;52.220;5.160;2023-03-23T06:32:22;100063.22;;;12.11;96.80
68230;BME280;55048;52.220;5.160;2023-03-23T06:34:49;100050.88;;;11.79;97.90
68230;BME280;55048;52.220;5.160;2023-03-23T06:37:33;100061.09;;;12.03;96.96
68230;BME280;55048;52.220;5.160;2023-03-23T06:40:19;100066.97;;;12.10;96.49
68230;BME280;55048;52.220;5.160;2023-03-23T06:42:56;100075.47;;;11.91;96.53
68230;BME280;55048;52.220;5.160;2023-03-23T06:45:39;100004.00;;;11.63;95.93
68230;BME280;55048;52.220;5.160;2023-03-23T06:48:23;100060.00;;;11.88;96.54
68230;BME280;55048;52.220;5.160;2023-03-23T06:50:49;100041.84;;;11.80;96.70
68230;BME280;55048;52.220;5.160;2023-03-23T06:53:16;100046.94;;;11.92;96.27
68230;BME280;55048;52.220;5.160;2023-03-23T06:55:43;100058.97;;;11.99;96.23
68230;BME280;55048;52.220;5.160;2023-03-23T06:58:09;100065.09;;;12.05;95.97
68230;BME280;55048;52.220;5.160;2023-03-23T07:00:35;100080.56;;;12.18;95.50
68230;BME280;55048;52.220;5.160;2023-03-23T07:03:01;100078.44;;;12.25;95.96
68230;BME280;55048;52.220;5.160;2023-03-23T07:05:27;100086.44;;;12.31;95.51
68230;BME280;55048;52.220;5.160;2023-03-23T07:07:52;100061.66;;;12.20;94.87
68230;BME280;55048;52.220;5.160;2023-03-23T07:10:29;100091.00;;;12.40;94.34
68230;BME280;55048;52.220;5.160;2023-03-23T07:12:55;100052.06;;;12.19;93.83
68230;BME280;55048;52.220;5.160;2023-03-23T07:15:22;100040.59;;;12.08;93.91
68230;BME280;55048;52.220;5.160;2023-03-23T07:17:50;99951.78;;;11.62;93.73
68230;BME280;55048;52.220;5.160;2023-03-23T07:20:26;100050.19;;;12.19;93.22
68230;BME280;55048;52.220;5.160;2023-03-23T07:22:53;100072.84;;;12.32;92.90
68230;BME280;55048;52.220;5.160;2023-03-23T07:25:32;100106.19;;;12.50;92.68
68230;BME280;55048;52.220;5.160;2023-03-23T07:28:00;100093.09;;;12.54;92.49
68230;BME280;55048;52.220;5.160;2023-03-23T07:30:26;100000.06;;;11.86;92.46
68230;BME280;55048;52.220;5.160;2023-03-23T07:32:52;100035.50;;;12.07;91.89
68230;BME280;55048;52.220;5.160;2023-03-23T07:35:18;100115.53;;;12.47;92.13
68230;BME280;55048;52.220;5.160;2023-03-23T07:38:04;100108.59;;;12.51;91.64
68230;BME280;55048;52.220;5.160;2023-03-23T07:40:31;100059.50;;;12.02;91.79
68230;BME280;55048;52.220;5.160;2023-03-23T07:43:05;100053.38;;;12.01;91.72
68230;BME280;55048;52.220;5.160;2023-03-23T07:45:54;100081.91;;;12.16;91.80
68230;BME280;55048;52.220;5.160;2023-03-23T07:48:22;100036.56;;;11.90;91.23
68230;BME280;55048;52.220;5.160;2023-03-23T07:50:49;100052.56;;;12.00;91.16
68230;BME280;55048;52.220;5.160;2023-03-23T07:53:15;100073.38;;;12.29;90.67
68230;BME280;55048;52.220;5.160;2023-03-23T07:55:44;100079.50;;;12.40;90.66
68230;BME280;55048;52.220;5.160;2023-03-23T07:58:28;100059.81;;;12.36;90.15
68230;BME280;55048;52.220;5.160;2023-03-23T08:00:55;100080.84;;;12.47;89.76
68230;BME280;55048;52.220;5.160;2023-03-23T08:03:24;100080.06;;;12.42;89.78
68230;BME280;55048;52.220;5.160;2023-03-23T08:05:59;100104.34;;;12.50;89.68
68230;BME280;55048;52.220;5.160;2023-03-23T08:08:45;100080.31;;;12.50;89.28
68230;BME280;55048;52.220;5.160;2023-03-23T08:11:29;100069.91;;;12.44;88.88
68230;BME280;55048;52.220;5.160;2023-03-23T08:14:18;100101.38;;;12.67;88.68
68230;BME280;55048;52.220;5.160;2023-03-23T08:17:00;100104.03;;;12.72;88.33
68230;BME280;55048;52.220;5.160;2023-03-23T08:19:40;100129.91;;;12.82;88.52
68230;BME280;55048;52.220;5.160;2023-03-23T08:22:24;100080.59;;;12.59;88.81
68230;BME280;55048;52.220;5.160;2023-03-23T08:25:13;100104.81;;;12.98;88.64
68230;BME280;55048;52.220;5.160;2023-03-23T08:28:09;100105.34;;;12.95;88.19
68230;BME280;55048;52.220;5.160;2023-03-23T08:31:06;100096.56;;;12.85;87.84
68230;BME280;55048;52.220;5.160;2023-03-23T08:33:58;100085.63;;;12.71;87.23
68230;BME280;55048;52.220;5.160;2023-03-23T08:36:56;100133.38;;;13.03;86.68
68230;BME280;55048;52.220;5.160;2023-03-23T08:39:41;100104.56;;;12.90;86.13
68230;BME280;55048;52.220;5.160;2023-03-23T08:42:11;100076.25;;;12.99;85.60
68230;BME280;55048;52.220;5.160;2023-03-23T08:45:02;99903.34;;;12.00;84.51
68230;BME280;55048;52.220;5.160;2023-03-23T08:47:57;100079.41;;;13.16;83.46
68230;BME280;55048;52.220;5.160;2023-03-23T08:50:43;100109.00;;;13.40;83.00
68230;BME280;55048;52.220;5.160;2023-03-23T08:53:23;100073.53;;;13.14;83.56
68230;BME280;55048;52.220;5.160;2023-03-23T08:56:24;100119.88;;;13.64;83.50
68230;BME280;55048;52.220;5.160;2023-03-23T08:59:06;100100.88;;;13.66;83.36
68230;BME280;55048;52.220;5.160;2023-03-23T09:01:55;100143.13;;;14.18;82.68
68230;BME280;55048;52.220;5.160;2023-03-23T09:04:36;100052.78;;;13.71;81.91
68230;BME280;55048;52.220;5.160;2023-03-23T09:07:22;100110.59;;;14.01;79.53
68230;BME280;55048;52.220;5.160;2023-03-23T09:09:49;100073.44;;;13.50;78.75
68230;BME280;55048;52.220;5.160;2023-03-23T09:12:14;100155.31;;;13.90;80.22
68230;BME280;55048;52.220;5.160;2023-03-23T09:14:40;99970.66;;;12.67;80.11
68230;BME280;55048;52.220;5.160;2023-03-23T09:17:05;100170.22;;;14.01;80.59
68230;BME280;55048;52.220;5.160;2023-03-23T09:19:32;100170.50;;;14.00;80.19
68230;BME280;55048;52.220;5.160;2023-03-23T09:21:59;100093.50;;;13.42;79.15
68230;BME280;55048;52.220;5.160;2023-03-23T09:24:25;100089.16;;;13.62;78.10
68230;BME280;55048;52.220;5.160;2023-03-23T09:26:51;100156.84;;;14.01;78.46
68230;BME280;55048;52.220;5.160;2023-03-23T09:29:17;100163.38;;;14.29;77.74
68230;BME280;55048;52.220;5.160;2023-03-23T09:31:44;100168.38;;;14.41;77.46
68230;BME280;55048;52.220;5.160;2023-03-23T09:34:13;100171.09;;;14.31;76.08
68230;BME280;55048;52.220;5.160;2023-03-23T09:36:41;99956.22;;;12.79;75.76
68230;BME280;55048;52.220;5.160;2023-03-23T09:39:07;100179.47;;;14.19;75.96
68230;BME280;55048;52.220;5.160;2023-03-23T09:50:25;100161.13;;;13.97;74.43
68230;BME280;55048;52.220;5.160;2023-03-23T09:52:58;100177.88;;;14.18;75.14
68230;BME280;55048;52.220;5.160;2023-03-23T09:55:25;100162.94;;;14.07;74.89
68230;BME280;55048;52.220;5.160;2023-03-23T10:00:46;100182.66;;;14.21;72.83
68230;BME280;55048;52.220;5.160;2023-03-23T10:03:19;100198.09;;;14.35;71.12
68230;BME280;55048;52.220;5.160;2023-03-23T10:05:47;100197.84;;;14.36;70.96
68230;BME280;55048;52.220;5.160;2023-03-23T10:08:15;100189.31;;;14.29;71.41
68230;BME280;55048;52.220;5.160;2023-03-23T10:11:11;100191.16;;;14.34;71.18
68230;BME280;55048;52.220;5.160;2023-03-23T10:16:05;100171.03;;;14.51;71.71
68230;BME280;55048;52.220;5.160;2023-03-23T10:19:32;100211.56;;;14.69;71.70
68230;BME280;55048;52.220;5.160;2023-03-23T10:21:32;100168.00;;;14.58;71.13
68230;BME280;55048;52.220;5.160;2023-03-23T10:24:04;100170.94;;;14.62;71.03
68230;BME280;55048;52.220;5.160;2023-03-23T10:26:48;100158.81;;;14.30;71.36
68230;BME280;55048;52.220;5.160;2023-03-23T10:31:49;100218.72;;;15.13;69.68
68230;BME280;55048;52.220;5.160;2023-03-23T10:37:26;100227.53;;;15.13;67.73
68230;BME280;55048;52.220;5.160;2023-03-23T10:39:54;100216.78;;;15.18;67.68
68230;BME280;55048;52.220;5.160;2023-03-23T10:42:33;100202.19;;;14.71;68.31
68230;BME280;55048;52.220;5.160;2023-03-23T10:45:14;100221.91;;;15.15;68.64
68230;BME280;55048;52.220;5.160;2023-03-23T10:47:44;100197.28;;;15.13;68.87
68230;BME280;55048;52.220;5.160;2023-03-23T10:50:16;100222.09;;;15.23;67.64
68230;BME280;55048;52.220;5.160;2023-03-23T10:52:44;100176.13;;;14.82;67.53
68230;BME280;55048;52.220;5.160;2023-03-23T10:55:14;100219.91;;;15.30;66.72
68230;BME280;55048;52.220;5.160;2023-03-23T10:57:45;100223.38;;;15.31;66.71
68230;BME280;55048;52.220;5.160;2023-03-23T11:02:45;100222.75;;;15.10;65.41
68230;BME280;55048;52.220;5.160;2023-03-23T11:05:23;100168.19;;;14.72;65.64
68230;BME280;55048;52.220;5.160;2023-03-23T11:07:53;100238.31;;;15.08;64.83
68230;BME280;55048;52.220;5.160;2023-03-23T11:12:49;100246.13;;;14.65;66.33
68230;BME280;55048;52.220;5.160;2023-03-23T11:15:38;100230.03;;;14.70;66.21
68230;BME280;55048;52.220;5.160;2023-03-23T11:18:09;100237.06;;;14.95;66.06
68230;BME280;55048;52.220;5.160;2023-03-23T11:20:40;100215.22;;;14.83;66.23
68230;BME280;55048;52.220;5.160;2023-03-23T11:23:09;100199.66;;;14.85;65.44
68230;BME280;55048;52.220;5.160;2023-03-23T11:25:54;100234.59;;;15.04;64.82
68230;BME280;55048;52.220;5.160;2023-03-23T11:28:21;100172.03;;;14.61;65.35
68230;BME280;55048;52.220;5.160;2023-03-23T11:30:47;100209.81;;;14.88;65.64
68230;BME280;55048;52.220;5.160;2023-03-23T11:33:13;100175.19;;;14.63;65.17
68230;BME280;55048;52.220;5.160;2023-03-23T11:35:44;100200.16;;;14.92;64.57
68230;BME280;55048;52.220;5.160;2023-03-23T11:38:19;100219.41;;;14.94;65.29
68230;BME280;55048;52.220;5.160;2023-03-23T11:40:50;100238.63;;;15.01;65.11
68230;BME280;55048;52.220;5.160;2023-03-23T11:43:23;100241.38;;;15.25;64.36
68230;BME280;55048;52.220;5.160;2023-03-23T11:45:56;100178.09;;;15.00;64.82
68230;BME280;55048;52.220;5.160;2023-03-23T11:48:28;100234.72;;;15.47;63.42
68230;BME280;55048;52.220;5.160;2023-03-23T11:51:03;100232.03;;;15.47;63.62
68230;BME280;55048;52.220;5.160;2023-03-23T11:56:36;100230.41;;;15.51;62.32
68230;BME280;55048;52.220;5.160;2023-03-23T11:59:05;100194.69;;;15.31;62.20
68230;BME280;55048;52.220;5.160;2023-03-23T12:13:02;100231.75;;;16.01;59.32
68230;BME280;55048;52.220;5.160;2023-03-23T12:15:42;100230.00;;;15.92;58.55
68230;BME280;55048;52.220;5.160;2023-03-23T12:18:37;100234.56;;;15.91;59.23
68230;BME280;55048;52.220;5.160;2023-03-23T12:26:28;100232.84;;;15.76;61.92
68230;BME280;55048;52.220;5.160;2023-03-23T12:39:53;100210.69;;;16.32;60.20
68230;BME280;55048;52.220;5.160;2023-03-23T12:42:43;100211.34;;;16.43;59.24
68230;BME280;55048;52.220;5.160;2023-03-23T12:45:47;100101.03;;;15.69;58.28
68230;BME280;55048;52.220;5.160;2023-03-23T12:48:36;100193.56;;;16.10;59.01
68230;BME280;55048;52.220;5.160;2023-03-23T12:51:29;100219.03;;;16.31;59.83
68230;BME280;55048;52.220;5.160;2023-03-23T12:57:18;100214.66;;;16.16;59.46
68230;BME280;55048;52.220;5.160;2023-03-23T13:00:16;100171.44;;;15.99;59.10
68230;BME280;55048;52.220;5.160;2023-03-23T13:02:42;100208.19;;;16.17;58.68
68230;BME280;55048;52.220;5.160;2023-03-23T13:05:25;100121.91;;;15.48;60.19
68230;BME280;55048;52.220;5.160;2023-03-23T13:07:59;100149.53;;;15.73;58.86
68230;BME280;55048;52.220;5.160;2023-03-23T13:10:28;100226.56;;;16.29;58.75
68230;BME280;55048;52.220;5.160;2023-03-23T13:12:55;100226.56;;;16.29;58.75
68230;BME280;55048;52.220;5.160;2023-03-23T13:21:24;100240.63;;;16.21;59.41
68230;BME280;55048;52.220;5.160;2023-03-23T13:23:57;100241.28;;;16.31;58.37
68230;BME280;55048;52.220;5.160;2023-03-23T13:26:25;100196.03;;;16.25;59.01
68230;BME280;55048;52.220;5.160;2023-03-23T13:29:00;100233.75;;;16.52;59.43
68230;BME280;55048;52.220;5.160;2023-03-23T13:31:32;100216.41;;;16.45;58.94
68230;BME280;55048;52.220;5.160;2023-03-23T13:34:15;99992.00;;;15.03;58.60
68230;BME280;55048;52.220;5.160;2023-03-23T13:36:43;100146.72;;;16.02;57.96
68230;BME280;55048;52.220;5.160;2023-03-23T13:39:47;100222.66;;;16.59;57.33
68230;BME280;55048;52.220;5.160;2023-03-23T13:45:18;100222.00;;;16.67;57.60
68230;BME280;55048;52.220;5.160;2023-03-23T13:47:44;100162.91;;;16.35;57.04
68230;BME280;55048;52.220;5.160;2023-03-23T13:57:52;100219.97;;;16.59;57.09
68230;BME280;55048;52.220;5.160;2023-03-23T14:03:25;100218.53;;;16.48;57.31
68230;BME280;55048;52.220;5.160;2023-03-23T14:06:22;100219.53;;;16.33;58.12
68230;BME280;55048;52.220;5.160;2023-03-23T14:09:25;100214.34;;;16.18;58.63
68230;BME280;55048;52.220;5.160;2023-03-23T14:11:58;100210.78;;;16.27;59.13
68230;BME280;55048;52.220;5.160;2023-03-23T14:14:30;100165.72;;;16.05;59.05
68230;BME280;55048;52.220;5.160;2023-03-23T14:17:06;100195.59;;;16.37;59.42
68230;BME280;55048;52.220;5.160;2023-03-23T14:19:32;100156.22;;;16.13;59.35
68230;BME280;55048;52.220;5.160;2023-03-23T14:22:00;100142.94;;;16.03;59.06
68230;BME280;55048;52.220;5.160;2023-03-23T14:24:28;100226.28;;;16.49;59.64
68230;BME280;55048;52.220;5.160;2023-03-23T14:27:12;100195.81;;;16.40;59.33
68230;BME280;55048;52.220;5.160;2023-03-23T14:29:38;100168.25;;;16.35;58.90
68230;BME280;55048;52.220;5.160;2023-03-23T14:32:07;100147.28;;;16.37;59.10
68230;BME280;55048;52.220;5.160;2023-03-23T14:34:35;100160.56;;;16.47;56.83
68230;BME280;55048;52.220;5.160;2023-03-23T14:37:01;100195.22;;;16.62;55.68
68230;BME280;55048;52.220;5.160;2023-03-23T14:39:32;100167.94;;;16.55;54.90
68230;BME280;55048;52.220;5.160;2023-03-23T14:42:10;100142.56;;;16.66;55.04
68230;BME280;55048;52.220;5.160;2023-03-23T14:44:48;100167.66;;;16.75;55.36
68230;BME280;55048;52.220;5.160;2023-03-23T14:47:26;100122.66;;;16.35;54.89
68230;BME280;55048;52.220;5.160;2023-03-23T14:49:55;100149.16;;;16.74;54.58
68230;BME280;55048;52.220;5.160;2023-03-23T14:52:23;100151.69;;;16.65;55.21
68230;BME280;55048;52.220;5.160;2023-03-23T14:54:49;100002.94;;;15.68;54.45
68230;BME280;55048;52.220;5.160;2023-03-23T14:57:18;100164.19;;;16.75;54.50
68230;BME280;55048;52.220;5.160;2023-03-23T14:59:46;100108.56;;;16.43;55.35
68230;BME280;55048;52.220;5.160;2023-03-23T15:02:22;99906.97;;;15.14;55.74